Time;durP1;ratioP1;P1;durP2;ratioP2;P2;SDS_P1;SDS_P2;PMS_P1;PMS_P2;Temp;Humidity;BMP_temperature;BMP_pressure;BME280_temperature;BME280_humidity;BME280_pressure;Samples;Min_cycle;Max_cycle;Signal;HPM_P1;HPM_P2
2023/01/24 00:02:31;;;;;;;4.00;3.70;;;;;;;21.14;37.84;95996.75;6064019;28;109177;-63
2023/01/24 00:05:34;;;;;;;4.53;4.13;;;;;;;21.17;37.93;96002.34;6055888;28;108994;-63
2023/01/24 00:08:37;;;;;;;3.93;3.63;;;;;;;21.18;37.83;95995.16;6039080;28;109087;-63
2023/01/24 00:11:43;;;;;;;4.17;3.70;;;;;;;21.17;37.93;95999.69;6052435;28;110226;-63
2023/01/24 00:14:47;;;;;;;3.40;3.10;;;;;;;21.16;37.64;95991.97;6065712;28;109282;-63
2023/01/24 00:17:50;;;;;;;4.27;3.70;;;;;;;21.02;37.66;95986.44;6053920;28;109132;-63
2023/01/24 00:21:01;;;;;;;3.33;3.03;;;;;;;21.18;37.63;96003.16;6039053;28;109406;-63
2023/01/24 00:24:05;;;;;;;3.77;3.40;;;;;;;21.17;37.96;96006.84;6047947;28;110082;-63
2023/01/24 00:27:08;;;;;;;4.20;3.80;;;;;;;21.16;37.72;96010.59;6064560;28;112497;-63
2023/01/24 00:30:13;;;;;;;3.83;3.53;;;;;;;21.15;37.60;96006.34;6043740;28;109890;-63
2023/01/24 00:33:16;;;;;;;3.17;2.87;;;;;;;21.14;37.43;96013.53;6058250;28;109305;-63
2023/01/24 00:36:19;;;;;;;3.40;3.20;;;;;;;21.16;37.58;96018.56;6065749;28;109232;-63
2023/01/24 00:39:22;;;;;;;2.87;2.57;;;;;;;21.08;37.51;95997.88;6065012;28;109753;-63
2023/01/24 00:42:25;;;;;;;2.87;2.67;;;;;;;21.16;37.76;96010.59;6054532;28;109337;-63
2023/01/24 00:45:30;;;;;;;3.40;3.10;;;;;;;21.14;37.48;96004.75;6056292;28;109646;-63
2023/01/24 00:48:33;;;;;;;3.13;2.83;;;;;;;21.15;37.61;96011.66;6064652;28;110140;-62
2023/01/24 00:51:36;;;;;;;3.50;3.20;;;;;;;21.15;37.58;96016.97;6054090;28;109998;-62
2023/01/24 00:54:41;;;;;;;2.97;2.57;;;;;;;21.15;37.51;96015.13;6045812;28;110421;-62
2023/01/24 00:57:44;;;;;;;3.50;3.20;;;;;;;21.09;37.10;96005.59;6054826;28;108800;-63
2023/01/24 01:00:48;;;;;;;3.00;2.50;;;;;;;21.15;37.32;96014.31;6063075;28;109548;-63
2023/01/24 01:03:56;;;;;;;3.57;3.27;;;;;;;21.08;37.11;96000.53;6054824;28;109696;-63
2023/01/24 01:07:01;;;;;;;2.90;2.70;;;;;;;21.15;37.60;96019.66;6065304;28;108915;-63
2023/01/24 01:10:05;;;;;;;3.90;2.90;;;;;;;21.16;37.37;96018.56;6056257;28;109081;-63
2023/01/24 01:13:12;;;;;;;3.50;3.23;;;;;;;21.14;37.11;96020.72;6065393;28;109030;-63
2023/01/24 01:16:19;;;;;;;3.00;2.77;;;;;;;21.16;37.28;96013.25;6053956;28;109088;-63
2023/01/24 01:19:25;;;;;;;2.70;2.50;;;;;;;21.15;37.07;96022.31;6062122;28;110118;-63
2023/01/24 01:22:28;;;;;;;3.40;2.90;;;;;;;21.08;37.48;96011.19;6046637;28;109278;-63
2023/01/24 01:25:31;;;;;;;2.53;2.27;;;;;;;21.13;37.08;96022.59;6057490;28;109259;-63
2023/01/24 01:28:37;;;;;;;2.57;2.37;;;;;;;21.05;37.34;96006.41;6050803;28;110103;-63
2023/01/24 01:31:41;;;;;;;3.57;3.27;;;;;;;21.14;37.42;96018.84;6064363;28;109170;-63
2023/01/24 01:34:44;;;;;;;3.30;3.00;;;;;;;21.13;37.17;96019.13;6064664;28;110164;-63
2023/01/24 01:37:47;;;;;;;2.90;2.60;;;;;;;21.13;37.25;96014.59;6058924;28;109068;-63
2023/01/24 01:40:51;;;;;;;2.93;2.73;;;;;;;21.12;36.98;96017.53;6059567;28;109076;-62
2023/01/24 01:47:25;;;;;;;2.73;2.53;;;;;;;21.13;37.16;96011.94;6054618;28;109239;-64
2023/01/24 01:50:32;;;;;;;3.97;3.57;;;;;;;21.04;36.86;95994.94;6042034;28;109463;-62
2023/01/24 01:53:39;;;;;;;3.23;2.93;;;;;;;21.11;37.00;96005.31;6049655;28;109330;-64
2023/01/24 01:56:46;;;;;;;2.80;2.60;;;;;;;21.12;36.82;96007.69;6064538;28;109159;-64
2023/01/24 01:59:53;;;;;;;2.83;2.50;;;;;;;21.14;37.14;96010.06;6064361;28;109016;-64
2023/01/24 02:06:34;;;;;;;2.60;2.40;;;;;;;20.97;37.16;95983.78;6062346;28;109115;-64
2023/01/24 02:09:40;;;;;;;2.90;2.67;;;;;;;21.13;36.87;96014.59;6052790;28;109126;-64
2023/01/24 02:12:46;;;;;;;2.87;2.60;;;;;;;21.13;36.87;96008.47;6052823;28;109120;-64
2023/01/24 02:16:02;;;;;;;2.87;2.60;;;;;;;21.13;37.18;96008.47;6055278;28;110065;-62
2023/01/24 02:19:12;;;;;;;3.07;2.77;;;;;;;21.12;37.04;96007.69;6062302;28;108960;-63
2023/01/24 02:22:26;;;;;;;2.20;2.00;;;;;;;21.10;37.39;96001.84;6063852;28;109629;-63
2023/01/24 02:25:37;;;;;;;3.10;2.80;;;;;;;21.13;37.35;96005.81;6046146;28;109397;-66
2023/01/24 02:28:45;;;;;;;3.10;2.80;;;;;;;21.13;37.06;96011.94;6064256;28;110535;-66
2023/01/24 02:31:54;;;;;;;2.80;2.60;;;;;;;20.99;37.04;95978.19;6059619;28;109240;-67
2023/01/24 02:34:57;;;;;;;3.10;2.80;;;;;;;21.11;37.31;96010.63;6050548;28;109961;-66
2023/01/24 02:38:07;;;;;;;2.30;2.10;;;;;;;21.08;37.08;96006.66;6056765;28;109016;-67
2023/01/24 02:41:10;;;;;;;2.73;2.50;;;;;;;21.07;37.16;96004.28;6063890;28;109554;-66
2023/01/24 02:44:20;;;;;;;2.90;2.60;;;;;;;21.07;37.12;95999.75;6056089;28;110215;-66
2023/01/24 02:47:30;;;;;;;2.90;2.60;;;;;;;21.12;36.99;96009.56;6042449;28;109953;-66
2023/01/24 02:53:29;;;;;;;2.90;2.70;;;;;;;21.05;37.25;95985.13;6045670;28;109114;-65
2023/01/24 02:53:55;;;;;;;2.73;2.53;;;;;;;21.05;36.84;95985.94;6058176;28;110427;-67
2023/01/24 03:00:21;;;;;;;2.67;2.47;;;;;;;21.12;36.94;96002.38;6056479;28;110794;-66
2023/01/24 03:03:24;;;;;;;2.70;2.50;;;;;;;21.09;37.01;95999.47;6063524;28;109421;-66
2023/01/24 03:06:27;;;;;;;2.93;2.50;;;;;;;21.12;36.98;96001.56;6063219;28;109180;-67
2023/01/24 03:09:34;;;;;;;2.50;2.30;;;;;;;20.99;36.65;95981.66;6042215;28;109320;-65
2023/01/24 03:36:20;;;;;;;2.53;2.33;;;;;;;21.10;36.78;95988.53;6057743;28;109221;-67
2023/01/24 03:42:49;;;;;;;2.50;2.17;;;;;;;21.09;36.52;95988.81;6040004;28;112107;-66
2023/01/24 03:45:54;;;;;;;2.10;1.90;;;;;;;21.11;36.62;95994.66;6062172;28;109104;-66
2023/01/24 03:48:58;;;;;;;2.47;2.27;;;;;;;21.11;36.84;95989.34;6050354;28;109833;-66
2023/01/24 03:55:22;;;;;;;2.30;2.10;;;;;;;21.10;36.81;95995.72;6052548;28;109473;-66
2023/01/24 03:58:27;;;;;;;2.30;2.10;;;;;;;21.10;36.55;95993.06;6066427;28;111832;-66
2023/01/24 04:01:32;;;;;;;2.60;2.40;;;;;;;21.11;36.73;95989.34;6066902;28;110516;-66
2023/01/24 04:07:54;;;;;;;2.27;2.10;;;;;;;21.04;36.89;95972.88;6056527;28;109168;-65
2023/01/24 04:10:58;;;;;;;2.40;2.20;;;;;;;21.12;37.21;95988.25;6064241;28;109562;-66
2023/01/24 04:14:03;;;;;;;2.47;2.20;;;;;;;21.01;36.94;95966.22;6060440;28;109889;-67
2023/01/24 04:17:06;;;;;;;5.20;2.63;;;;;;;20.88;36.06;95983.59;6055625;28;109205;-59
2023/01/24 04:20:11;;;;;;;2.37;2.00;;;;;;;20.43;35.76;95986.44;6064254;28;110132;-61
2023/01/24 04:23:17;;;;;;;3.00;2.57;;;;;;;20.21;35.36;95998.19;6043680;28;109949;-61
2023/01/24 04:26:20;;;;;;;2.67;2.47;;;;;;;19.91;34.82;95998.25;6063774;28;108894;-61
2023/01/24 04:29:25;;;;;;;4.03;3.70;;;;;;;19.75;35.09;95988.69;6045706;28;109078;-61
2023/01/24 04:32:30;;;;;;;3.40;3.10;;;;;;;19.53;34.69;95962.44;6064755;28;110677;-61
2023/01/24 04:35:36;;;;;;;3.23;2.90;;;;;;;19.49;34.24;95977.28;6054588;28;110097;-61
2023/01/24 04:38:39;;;;;;;2.80;2.60;;;;;;;19.41;34.53;95978.63;6056802;28;109626;-62
2023/01/24 04:41:42;;;;;;;2.97;2.77;;;;;;;19.21;34.35;95979.38;6034553;28;110170;-62
2023/01/24 04:44:45;;;;;;;2.90;2.70;;;;;;;19.19;34.46;95968.22;6043968;28;108777;-63
2023/01/24 04:47:48;;;;;;;2.63;2.43;;;;;;;19.25;33.99;95984.94;6055110;28;109246;-62
2023/01/24 04:50:52;;;;;;;3.30;3.10;;;;;;;19.18;33.80;95992.38;6060386;28;110199;-62
2023/01/24 04:53:56;;;;;;;3.80;3.40;;;;;;;19.13;34.21;95985.97;6059867;28;110429;-65
2023/01/24 04:56:59;;;;;;;3.07;2.87;;;;;;;19.40;33.78;95992.91;6063063;28;109188;-62
2023/01/24 05:00:04;;;;;;;3.67;3.20;;;;;;;19.23;33.58;95993.16;6064291;28;108915;-62
2023/01/24 05:03:07;;;;;;;3.50;3.20;;;;;;;18.90;33.59;95991.78;6053039;28;110112;-63
2023/01/24 05:06:12;;;;;;;3.50;3.20;;;;;;;19.69;36.77;95995.88;6061701;28;110201;-63
2023/01/24 05:09:15;;;;;;;3.37;3.07;;;;;;;20.14;37.54;95981.72;6085367;28;108785;-64
2023/01/24 05:12:18;;;;;;;3.03;2.80;;;;;;;20.59;36.85;95995.97;6090195;28;110116;-63
2023/01/24 05:15:22;;;;;;;3.60;3.30;;;;;;;20.92;36.27;95995.28;6078113;28;109113;-63
2023/01/24 05:18:26;;;;;;;3.33;2.83;;;;;;;21.14;36.04;96004.75;6086415;28;109861;-63
2023/01/24 05:21:30;;;;;;;3.03;2.73;;;;;;;21.20;36.15;96019.63;6079847;28;110453;-63
2023/01/24 05:24:33;;;;;;;3.93;2.80;;;;;;;21.26;35.92;96018.53;6084550;28;110638;-61
2023/01/24 05:27:36;;;;;;;3.40;2.67;;;;;;;21.13;36.31;96008.47;6081867;28;109245;-61
2023/01/24 05:30:39;;;;;;;4.63;3.00;;;;;;;21.06;36.01;96030.09;6084106;28;110744;-61
2023/01/24 05:33:42;;;;;;;3.43;3.00;;;;;;;21.02;36.26;96031.69;6064547;28;109064;-61
2023/01/24 05:36:47;;;;;;;2.97;2.67;;;;;;;21.03;36.30;96043.13;6053805;28;109204;-61
2023/01/24 05:39:50;;;;;;;4.33;2.83;;;;;;;21.00;35.81;96036.47;6064704;28;109533;-61
2023/01/24 05:42:55;;;;;;;2.77;2.57;;;;;;;20.96;35.79;96027.44;6065241;28;109009;-61
2023/01/24 05:46:00;;;;;;;2.77;2.50;;;;;;;20.87;35.55;96021.13;6065097;28;109089;-61
2023/01/24 05:49:03;;;;;;;4.40;2.80;;;;;;;21.01;35.44;96050.59;6054583;28;109502;-61
2023/01/24 05:52:07;;;;;;;2.90;2.70;;;;;;;21.00;35.33;96047.09;6064129;28;109099;-61
2023/01/24 05:55:10;;;;;;;2.60;2.40;;;;;;;20.99;35.74;96050.84;6065181;28;109779;-61
2023/01/24 05:58:13;;;;;;;2.40;2.20;;;;;;;20.98;35.45;96054.56;6065178;28;109087;-61
2023/01/24 06:01:19;;;;;;;2.33;2.13;;;;;;;20.99;35.47;96053.50;6054288;28;109218;-61
2023/01/24 06:04:22;;;;;;;2.80;2.50;;;;;;;20.99;35.46;96061.47;6064795;28;109263;-61
2023/01/24 06:07:26;;;;;;;3.67;3.00;;;;;;;21.00;35.25;96064.94;6064796;28;109058;-62
2023/01/24 06:10:29;;;;;;;2.63;2.33;;;;;;;20.97;35.33;96065.47;6057588;28;109108;-61
2023/01/24 06:13:32;;;;;;;2.43;2.23;;;;;;;20.74;35.58;96029.69;6062482;28;109113;-62
2023/01/24 06:16:35;;;;;;;4.03;2.53;;;;;;;;;;6064505;28;109174;-62
2023/01/24 06:19:39;;;;;;;2.47;2.27;;;;;;;20.99;34.93;96076.66;6064543;28;109073;-61
2023/01/24 06:22:51;;;;;;;2.50;2.20;;;;;;;20.97;35.24;96073.47;6053300;28;109056;-60
2023/01/24 06:25:55;;;;;;;2.83;2.63;;;;;;;20.96;35.08;96079.88;6064751;28;109226;-62
2023/01/24 06:28:59;;;;;;;2.47;2.27;;;;;;;20.97;34.99;96084.13;6064440;28;109383;-60
2023/01/24 06:32:13;;;;;;;2.53;2.33;;;;;;;20.74;35.04;96050.97;6064407;28;109215;-61
2023/01/24 06:35:24;;;;;;;2.23;2.13;;;;;;;20.70;34.80;96049.91;6053789;28;110124;-60
2023/01/24 06:38:29;;;;;;;2.50;2.30;;;;;;;20.96;35.03;96093.16;6064573;28;109380;-60
2023/01/24 06:41:33;;;;;;;2.20;2.00;;;;;;;20.99;34.69;96095.28;6064191;28;109001;-60
2023/01/24 06:44:36;;;;;;;1.83;1.73;;;;;;;20.98;34.92;96093.69;6057518;28;109173;-60
2023/01/24 06:47:40;;;;;;;2.33;1.93;;;;;;;20.85;35.11;96079.91;6062224;28;109353;-60
2023/01/24 06:50:46;;;;;;;2.77;2.57;;;;;;;20.98;34.83;96099.81;6068118;28;109171;-61
2023/01/24 06:53:50;;;;;;;2.40;2.20;;;;;;;20.99;34.96;96105.91;6067492;28;109269;-61
2023/01/24 06:56:53;;;;;;;2.43;2.23;;;;;;;20.96;34.95;96107.25;6057530;28;109122;-61
2023/01/24 06:59:59;;;;;;;2.40;2.20;;;;;;;20.97;34.67;96108.06;6068332;28;109384;-60
2023/01/24 07:03:06;;;;;;;2.40;2.10;;;;;;;20.97;34.72;96114.19;6068285;28;110131;-61
2023/01/24 07:06:09;;;;;;;2.80;2.60;;;;;;;20.96;34.67;96115.25;6068075;28;109339;-60
2023/01/24 07:09:14;;;;;;;2.13;1.90;;;;;;;20.85;34.87;96093.22;6056843;28;109186;-60
2023/01/24 07:12:17;;;;;;;2.47;2.27;;;;;;;20.98;34.98;96107.00;6067983;28;109165;-61
2023/01/24 07:15:20;;;;;;;2.20;2.07;;;;;;;20.85;34.71;96097.75;6068301;28;109250;-61
2023/01/24 07:18:24;;;;;;;2.00;1.90;;;;;;;20.96;34.68;96128.56;6063231;28;110642;-61
2023/01/24 07:21:28;;;;;;;2.33;2.00;;;;;;;20.95;34.80;96120.84;6062239;28;109100;-61
2023/01/24 07:24:36;;;;;;;3.50;2.00;;;;;;;20.97;34.72;96121.38;6066795;28;109094;-61
2023/01/24 07:27:39;;;;;;;4.13;3.10;;;;;;;20.98;34.65;96126.41;6067693;28;109272;-61
2023/01/24 07:30:44;;;;;;;1.83;1.73;;;;;;;20.94;34.54;96122.72;6057035;28;110304;-61
2023/01/24 07:33:48;;;;;;;2.17;1.97;;;;;;;21.01;34.51;96123.22;6067374;28;109222;-67
2023/01/24 07:36:53;;;;;;;2.40;2.20;;;;;;;21.10;35.48;96131.47;6067448;28;109322;-67
2023/01/24 07:39:57;;;;;;;2.30;2.10;;;;;;;21.08;35.48;96118.44;6067653;28;110146;-65
2023/01/24 07:43:01;;;;;;;2.73;2.50;;;;;;;21.18;36.24;96138.91;6056852;28;109632;-65
2023/01/24 07:46:04;;;;;;;3.13;2.83;;;;;;;21.20;36.51;96148.19;6067907;28;110228;-67
2023/01/24 07:49:08;;;;;;;2.80;2.60;;;;;;;21.22;36.41;96145.25;6067549;28;109043;-65
2023/01/24 07:52:11;;;;;;;2.93;2.63;;;;;;;21.14;36.19;96148.47;6062504;28;109159;-60
2023/01/24 07:55:18;;;;;;;3.80;3.43;;;;;;;21.09;36.16;96159.16;6060977;28;109241;-60
2023/01/24 07:58:21;;;;;;;3.47;3.17;;;;;;;21.06;36.16;96159.69;6067387;28;108910;-61
2023/01/24 08:01:25;;;;;;;3.67;3.37;;;;;;;21.02;36.04;96161.28;6066486;28;109034;-61
2023/01/24 08:04:28;;;;;;;2.97;2.77;;;;;;;21.01;36.06;96171.13;6057120;28;109111;-61
2023/01/24 08:07:31;;;;;;;2.90;2.70;;;;;;;20.99;35.85;96167.91;6066890;28;109175;-61
2023/01/24 08:10:38;;;;;;;3.30;3.00;;;;;;;20.99;35.69;96167.13;6067028;28;109146;-61
2023/01/24 08:13:46;;;;;;;3.43;3.13;;;;;;;20.99;35.51;96172.44;6066864;28;109150;-61
2023/01/24 08:16:49;;;;;;;2.70;2.50;;;;;;;20.97;35.60;96174.59;6056429;28;109127;-61
2023/01/24 08:19:55;;;;;;;3.10;2.83;;;;;;;20.96;35.52;96168.47;6067238;28;110262;-61
2023/01/24 08:22:59;;;;;;;2.57;2.37;;;;;;;20.90;35.32;96159.72;6066698;28;109209;-61
2023/01/24 08:26:06;;;;;;;2.73;2.53;;;;;;;20.96;35.48;96167.66;6066111;28;109145;-61
2023/01/24 08:29:09;;;;;;;2.70;2.50;;;;;;;20.96;35.49;96173.00;6058052;28;110231;-61
2023/01/24 08:32:12;;;;;;;2.40;2.20;;;;;;;;;;6065683;28;109248;-61
2023/01/24 08:35:15;;;;;;;2.83;2.63;;;;;;;;;;6066717;28;109320;-61
2023/01/24 08:38:17;;;;;;;2.50;2.30;;;;;;;;;;6057309;28;110258;-61
2023/01/24 08:41:22;;;;;;;2.50;2.30;;;;;;;20.94;34.92;96173.25;6065645;28;109367;-61
2023/01/24 08:44:25;;;;;;;2.60;2.40;;;;;;;20.93;34.89;96177.78;6066182;28;109086;-61
2023/01/24 08:47:28;;;;;;;2.43;2.23;;;;;;;20.92;35.10;96167.41;6066709;28;109146;-61
2023/01/24 08:50:31;;;;;;;2.47;2.27;;;;;;;20.93;34.86;96169.81;6055656;28;110096;-61
2023/01/24 08:53:36;;;;;;;2.20;2.00;;;;;;;20.92;34.96;96170.88;6066340;28;109912;-61
2023/01/24 08:56:46;;;;;;;2.47;2.27;;;;;;;20.93;34.98;96174.34;6065311;28;109300;-61
2023/01/24 08:59:49;;;;;;;2.33;2.10;;;;;;;20.79;35.19;96155.47;6066138;28;110129;-61
2023/01/24 09:02:52;;;;;;;2.83;2.63;;;;;;;20.93;34.84;96172.47;6055588;28;109025;-62
2023/01/24 09:05:57;;;;;;;2.27;2.07;;;;;;;20.93;34.98;96175.13;6066143;28;110072;-61
2023/01/24 09:09:00;;;;;;;2.60;2.40;;;;;;;20.93;34.91;96175.13;6065776;28;109295;-61
2023/01/24 09:12:05;;;;;;;2.40;2.20;;;;;;;20.92;34.73;96165.56;6060388;28;109163;-60
2023/01/24 09:15:09;;;;;;;3.30;3.00;;;;;;;21.00;35.57;96169.50;6061131;28;109121;-65
2023/01/24 09:18:14;;;;;;;2.83;2.60;;;;;;;20.99;35.10;96169.78;6065946;28;109061;-65
2023/01/24 09:21:21;;;;;;;2.50;2.30;;;;;;;20.99;35.48;96170.56;6065893;28;110168;-65
2023/01/24 09:24:24;;;;;;;2.63;2.30;;;;;;;21.04;37.61;96173.25;6055198;28;109101;-65
2023/01/24 09:27:28;;;;;;;2.97;2.63;;;;;;;21.04;36.47;96170.59;6065186;28;109053;-65
2023/01/24 09:30:32;;;;;;;2.70;2.50;;;;;;;21.04;36.21;96165.25;6065110;28;109462;-65
2023/01/24 09:33:49;;;;;;;3.17;2.93;;;;;;;21.05;36.34;96166.09;6064387;28;109257;-65
2023/01/24 09:37:01;;;;;;;2.60;2.40;;;;;;;21.06;36.41;96165.03;6055258;28;109297;-65
2023/01/24 09:40:06;;;;;;;3.97;2.77;;;;;;;21.01;36.54;96151.72;6065341;28;109795;-65
2023/01/24 09:43:16;;;;;;;3.60;3.30;;;;;;;21.03;36.85;96163.66;6065469;28;109079;-61
2023/01/24 09:46:31;;;;;;;2.90;2.70;;;;;;;21.01;36.49;96167.69;6059047;28;109539;-61
2023/01/24 09:49:39;;;;;;;2.87;2.67;;;;;;;21.00;36.47;96163.38;6064983;28;109109;-61
2023/01/24 09:52:44;;;;;;;3.33;2.60;;;;;;;20.96;36.30;96162.34;6065178;28;109657;-61
2023/01/24 09:55:48;;;;;;;2.87;2.67;;;;;;;20.96;36.12;96160.47;6064972;28;109087;-60
2023/01/24 09:59:11;;;;;;;2.67;2.47;;;;;;;20.98;36.06;96154.88;6054508;28;110070;-61
2023/01/24 10:02:17;;;;;;;2.90;2.70;;;;;;;20.97;36.12;96146.09;6064523;28;109207;-61
2023/01/24 10:05:23;;;;;;;3.03;2.73;;;;;;;20.98;35.91;96157.53;6064737;28;109110;-61
2023/01/24 10:08:33;;;;;;;2.40;2.20;;;;;;;20.97;35.83;96147.97;6062462;28;109347;-61
2023/01/24 10:11:47;;;;;;;2.30;2.10;;;;;;;20.76;35.77;96121.44;6058911;28;109699;-61
2023/01/24 10:15:04;;;;;;;2.60;2.40;;;;;;;20.96;35.83;96149.03;6064948;28;109309;-61
2023/01/24 10:18:39;;;;;;;2.57;1.90;;;;;;;20.97;35.57;96142.66;6064830;28;109005;-61
2023/01/24 10:22:04;;;;;;;2.30;2.10;;;;;;;20.96;35.72;96149.03;6054222;28;109095;-61
2023/01/24 10:25:14;;;;;;;1.87;1.77;;;;;;;20.96;35.82;96141.84;6063977;28;109317;-61
2023/01/24 10:28:23;;;;;;;2.33;2.03;;;;;;;20.96;35.44;96138.41;6065008;28;109244;-60
2023/01/24 10:31:30;;;;;;;1.90;1.80;;;;;;;20.96;35.32;96141.06;6058582;28;110320;-62
2023/01/24 10:34:39;;;;;;;2.00;1.80;;;;;;;20.97;35.42;96129.34;6058618;28;109123;-61
2023/01/24 10:37:46;;;;;;;1.83;1.73;;;;;;;20.96;35.14;96125.09;6064297;28;109209;-62
2023/01/24 10:40:54;;;;;;;1.90;1.80;;;;;;;20.90;35.45;96119.81;6064616;28;109420;-61
2023/01/24 10:44:02;;;;;;;2.10;1.87;;;;;;;20.96;35.04;96133.06;6053156;28;109514;-62
2023/01/24 10:47:24;;;;;;;2.10;1.90;;;;;;;;;;6064385;28;108973;-62
2023/01/24 10:50:36;;;;;;;1.90;1.80;;;;;;;20.96;34.95;96119.78;6064236;28;109073;-62
2023/01/24 10:53:41;;;;;;;1.73;1.63;;;;;;;20.96;35.22;96115.25;6064676;28;110060;-62
2023/01/24 10:56:44;;;;;;;1.73;1.63;;;;;;;20.97;35.22;96118.69;6053418;28;109303;-62
2023/01/24 10:59:48;;;;;;;1.77;1.67;;;;;;;20.96;34.88;96117.91;6064447;28;110330;-62
2023/01/24 11:02:53;;;;;;;1.47;1.37;;;;;;;20.96;34.73;96115.25;6063617;28;109601;-62
2023/01/24 11:05:58;;;;;;;1.80;1.70;;;;;;;;;;6056193;28;109034;-62
2023/01/24 11:09:10;;;;;;;2.00;1.80;;;;;;;20.96;34.78;96114.44;6063914;28;109725;-62
2023/01/24 11:12:14;;;;;;;1.83;1.73;;;;;;;20.94;34.84;96112.06;6063811;28;109205;-61
2023/01/24 11:15:22;;;;;;;1.80;1.70;;;;;;;20.96;34.91;96114.44;6063895;28;109345;-61
2023/01/24 11:18:31;;;;;;;1.37;1.27;;;;;;;20.93;35.11;96110.47;6053515;28;111705;-61
2023/01/24 11:21:52;;;;;;;1.90;1.70;;;;;;;20.92;34.87;96104.34;6064031;28;109980;-61
2023/01/24 11:24:57;;;;;;;1.40;1.30;;;;;;;20.88;34.95;96094.53;6064002;28;108921;-61
2023/01/24 11:28:03;;;;;;;1.60;1.50;;;;;;;20.94;34.50;96104.09;6059117;28;109230;-61
2023/01/24 11:31:16;;;;;;;1.57;1.47;;;;;;;20.93;34.45;96097.16;6058076;28;109576;-61
2023/01/24 11:34:35;;;;;;;1.30;1.20;;;;;;;20.93;35.07;96094.50;6062359;28;109087;-61
2023/01/24 11:38:03;;;;;;;1.47;1.37;;;;;;;20.92;34.74;96087.59;6067429;28;109632;-61
2023/01/24 11:41:11;;;;;;;1.83;1.50;;;;;;;20.93;34.87;96087.31;6057275;28;109377;-61
2023/01/24 11:44:34;;;;;;;1.57;1.47;;;;;;;20.93;34.71;96084.66;6067409;28;109227;-61
2023/01/24 11:47:45;;;;;;;1.40;1.30;;;;;;;20.92;34.71;96084.94;6067714;28;110119;-61
2023/01/24 11:51:05;;;;;;;1.73;1.47;;;;;;;20.93;34.61;96076.69;6062549;28;109182;-61
2023/01/24 11:54:35;;;;;;;1.60;1.40;;;;;;;;;;6062817;28;109443;-61
2023/01/24 11:57:51;;;;;;;1.47;1.37;;;;;;;20.92;34.64;96072.44;6067581;28;108848;-61
2023/01/24 12:00:59;;;;;;;1.60;1.50;;;;;;;20.92;34.80;96077.75;6067160;28;109401;-61
2023/01/24 12:04:25;;;;;;;1.30;1.20;;;;;;;20.92;34.55;96069.75;6056572;28;109641;-61
2023/01/24 12:07:37;;;;;;;1.13;1.03;;;;;;;20.93;34.57;96073.22;6066568;28;110251;-61
2023/01/24 12:10:53;;;;;;;1.40;1.30;;;;;;;20.92;34.42;96082.28;6066825;28;109479;-61
2023/01/24 12:14:48;;;;;;;1.30;1.20;;;;;;;20.92;34.35;96088.41;6056811;28;111720;-60
2023/01/24 12:18:25;;;;;;;1.47;1.37;;;;;;;20.92;34.23;96082.28;6067017;28;108868;-62
2023/01/24 12:21:28;;;;;;;1.50;1.27;;;;;;;20.92;34.44;96088.41;6035167;28;109017;-62
2023/01/24 12:24:33;;;;;;;1.67;1.47;;;;;;;20.92;34.55;96085.72;6066733;28;109144;-61
2023/01/24 12:27:39;;;;;;;1.13;1.10;;;;;;;20.84;34.41;96073.00;6056477;28;110889;-61
2023/01/24 12:30:45;;;;;;;1.40;1.20;;;;;;;20.91;34.01;96086.81;6066716;28;110369;-61
2023/01/24 12:33:54;;;;;;;1.23;1.13;;;;;;;20.91;34.38;96086.00;6066004;28;109328;-61
2023/01/24 12:37:03;;;;;;;1.07;0.97;;;;;;;20.92;34.30;96083.06;6057858;28;110182;-60
2023/01/24 12:40:19;;;;;;;1.03;0.93;;;;;;;20.89;34.51;96088.94;6065531;28;110104;-61
2023/01/24 12:43:35;;;;;;;1.10;1.00;;;;;;;20.91;34.18;96086.00;6066882;28;110082;-61
2023/01/24 12:46:42;;;;;;;1.17;1.07;;;;;;;20.88;34.29;96087.34;6066304;28;112003;-61
2023/01/24 12:50:00;;;;;;;1.53;1.20;;;;;;;20.90;34.36;96090.53;6055736;28;109020;-61
2023/01/24 12:53:12;;;;;;;1.17;1.07;;;;;;;20.88;34.33;96098.00;6066338;28;110144;-61
2023/01/24 12:56:23;;;;;;;0.93;0.93;;;;;;;20.88;34.22;96086.56;6066007;28;109084;-60
2023/01/24 12:59:29;;;;;;;0.97;0.90;;;;;;;20.88;34.13;96090.00;6062218;28;110393;-61
2023/01/24 13:02:52;;;;;;;1.40;1.20;;;;;;;20.84;34.41;96074.88;6063807;28;109099;-61
2023/01/24 13:06:04;;;;;;;1.00;0.90;;;;;;;20.84;34.09;96075.66;6066090;28;109346;-61
2023/01/24 13:09:19;;;;;;;1.30;1.20;;;;;;;20.91;34.30;96086.81;6065918;28;109231;-60
2023/01/24 13:12:28;;;;;;;1.50;1.40;;;;;;;20.91;34.16;96086.00;6054658;28;110062;-61
2023/01/24 13:15:40;;;;;;;1.37;1.17;;;;;;;20.91;33.99;96078.81;6065999;28;109902;-61
2023/01/24 13:18:58;;;;;;;1.20;1.10;;;;;;;20.93;34.20;96082.00;6066000;28;109149;-61
2023/01/24 13:22:27;;;;;;;2.10;0.80;;;;;;;20.91;34.46;96081.47;6060653;28;109222;-61
2023/01/24 13:25:46;;;;;;;1.20;1.10;;;;;;;20.91;34.27;96089.47;6065546;28;109270;-61
2023/01/24 13:29:04;;;;;;;0.80;0.80;;;;;;;20.92;34.25;96092.91;6065823;28;108942;-61
2023/01/24 13:32:13;;;;;;;1.00;0.90;;;;;;;20.89;34.27;96088.94;6064803;28;109048;-61
2023/01/24 13:35:20;;;;;;;1.50;0.90;;;;;;;20.91;34.29;96094.78;6054817;28;109078;-63
2023/01/24 13:38:27;;;;;;;1.07;1.00;;;;;;;20.90;34.28;96095.84;6065476;28;109095;-62
2023/01/24 13:41:36;;;;;;;1.03;0.93;;;;;;;20.90;34.27;96098.50;6065445;28;109221;-61
2023/01/24 13:44:39;;;;;;;1.37;0.73;;;;;;;20.90;34.19;96105.69;6059943;28;109093;-61
2023/01/24 13:47:44;;;;;;;1.20;1.10;;;;;;;20.90;34.14;96105.69;6059548;28;109633;-61
2023/01/24 13:51:24;;;;;;;1.00;0.90;;;;;;;20.90;34.00;96101.16;6065434;28;110203;-61
2023/01/24 13:54:39;;;;;;;1.80;1.50;;;;;;;20.89;33.93;96104.91;6065275;28;109410;-62
2023/01/24 13:57:43;;;;;;;0.80;0.80;;;;;;;20.89;34.00;96104.91;6053770;28;109122;-62
2023/01/24 14:00:49;;;;;;;1.10;1.00;;;;;;;20.90;33.95;96108.38;6064901;28;109569;-61
2023/01/24 14:03:58;;;;;;;1.10;1.00;;;;;;;20.84;34.04;96112.91;6065049;28;109638;-62
2023/01/24 14:07:02;;;;;;;0.93;0.80;;;;;;;20.88;33.91;96123.81;6063072;28;109357;-62
2023/01/24 14:10:06;;;;;;;1.30;1.20;;;;;;;20.86;34.24;96108.13;6057339;28;109632;-62
2023/01/24 14:13:42;;;;;;;1.20;1.00;;;;;;;20.87;33.83;96109.69;6064643;28;109378;-62
2023/01/24 14:17:03;;;;;;;1.13;1.03;;;;;;;20.88;33.98;96107.84;6064052;28;109516;-62
2023/01/24 14:20:21;;;;;;;1.50;1.10;;;;;;;20.88;33.93;96111.28;6054160;28;109164;-62
2023/01/24 14:23:30;;;;;;;1.10;1.00;;;;;;;20.88;34.06;96110.50;6065147;28;111749;-62
2023/01/24 14:26:34;;;;;;;1.03;0.93;;;;;;;20.85;34.04;96106.53;6064581;28;109763;-62
2023/01/24 14:29:44;;;;;;;0.90;0.90;;;;;;;20.87;33.84;96108.91;6064891;28;110105;-62
2023/01/24 14:33:00;;;;;;;1.53;1.20;;;;;;;20.86;33.93;96118.75;6057195;28;109112;-62
2023/01/24 14:36:16;;;;;;;1.17;1.07;;;;;;;20.80;34.09;96100.41;6064738;28;110047;-61
2023/01/24 14:39:22;;;;;;;0.90;0.90;;;;;;;20.72;33.69;96083.16;6064413;28;109128;-61
2023/01/24 14:42:29;;;;;;;1.10;1.00;;;;;;;20.85;34.08;96111.84;6053943;28;109829;-61
2023/01/24 14:45:34;;;;;;;1.10;1.00;;;;;;;20.86;34.17;96109.97;6064404;28;109161;-62
2023/01/24 14:48:40;;;;;;;1.10;1.00;;;;;;;20.78;34.20;96092.69;6063758;28;109256;-61
2023/01/24 14:51:45;;;;;;;1.00;0.90;;;;;;;20.96;33.84;96117.09;6064384;28;110004;-62
2023/01/24 14:54:51;;;;;;;1.10;1.00;;;;;;;21.01;33.76;96111.78;6053512;28;109201;-60
2023/01/24 14:57:55;;;;;;;1.13;1.03;;;;;;;21.01;33.70;96120.56;6064451;28;110135;-61
2023/01/24 15:01:00;;;;;;;1.00;0.90;;;;;;;21.05;33.65;96105.69;6064141;28;109336;-61
2023/01/24 15:04:04;;;;;;;1.30;1.20;;;;;;;21.06;33.56;96109.13;6059118;28;109519;-61
2023/01/24 15:07:14;;;;;;;1.10;1.00;;;;;;;21.07;33.65;96116.03;6058692;28;109383;-61
2023/01/24 15:10:23;;;;;;;0.80;0.80;;;;;;;21.07;33.65;96121.38;6066878;28;110080;-61
2023/01/24 15:13:32;;;;;;;0.90;0.90;;;;;;;21.06;33.68;96117.91;6068191;28;110695;-61
2023/01/24 15:16:39;;;;;;;1.20;1.10;;;;;;;21.07;33.34;96127.50;6057481;28;109715;-61
2023/01/24 15:19:44;;;;;;;0.83;0.83;;;;;;;21.04;33.41;96125.34;6067186;28;108943;-61
2023/01/24 15:22:53;;;;;;;0.90;0.87;;;;;;;21.05;33.43;96128.84;6067860;28;109429;-61